Philomont, Virginia
Current Conditions -  °F | °C
As of 9:55 PM on Wednesday 26 Nov 2014 (Local Time) from KJYO Reporting Station
Overcast Overcast  
Wind Chill: 29°   Ceiling: 5000
Heat Index: 36°   Visibility: 10mi
Dew Point: 36°   Wind: 8mph
Humidity: 100%   Direction: 330°NNW
Pressure: 30.01"   Gusts: NA
Location:  39.06°N, 77.74°W
Report Text: KJYO 270255Z AUTO 33007KT 10SM SCT038 BKN050 OVC110 02/02 A3001 RMK AO2 P0004
Loading
Personal Weather Stations






























Interactive Weather Map New forecast layout! Learn more

10-Day Weather Forecast

Advertisements
Track Severe Weather on mobile